Time;durP1;ratioP1;P1;durP2;ratioP2;P2;SDS_P1;SDS_P2;PMS_P1;PMS_P2;Temp;Humidity;BMP_temperature;BMP_pressure;BME280_temperature;BME280_humidity;BME280_pressure;Samples;Min_cycle;Max_cycle;Signal;HPM_P1;HPM_P2
2023/08/26 00:01:55;;;;;;;46.28;18.55;;;;;;;19.04;100.00;96914.84;5083986;28;20447;-73
2023/08/26 00:04:22;;;;;;;51.57;19.57;;;;;;;19.05;100.00;96927.16;5094120;28;20397;-73
2023/08/26 00:06:49;;;;;;;47.33;18.85;;;;;;;19.02;100.00;96938.50;5094038;28;20935;-73
2023/08/26 00:09:16;;;;;;;51.33;20.23;;;;;;;19.01;100.00;96936.16;5093848;28;20429;-72
2023/08/26 00:11:42;;;;;;;66.15;24.80;;;;;;;18.95;100.00;96938.19;5093725;28;20437;-73
2023/08/26 00:14:08;;;;;;;61.40;23.90;;;;;;;18.91;100.00;96945.31;5093748;28;20402;-73
2023/08/26 00:16:35;;;;;;;54.67;22.02;;;;;;;18.90;100.00;96931.09;5094074;28;20398;-73
2023/08/26 00:19:01;;;;;;;72.97;26.40;;;;;;;18.84;100.00;96923.53;5093817;28;20398;-71
2023/08/26 00:21:28;;;;;;;56.65;22.85;;;;;;;18.83;100.00;96914.69;5093517;28;20394;-72
2023/08/26 00:23:56;;;;;;;62.00;24.95;;;;;;;18.80;100.00;96912.63;5093669;28;20481;-73
2023/08/26 00:26:22;;;;;;;57.15;21.98;;;;;;;18.80;100.00;96919.88;5093635;28;20748;-73
2023/08/26 00:28:48;;;;;;;61.45;22.58;;;;;;;18.79;100.00;96945.16;5093683;28;20397;-73
2023/08/26 00:31:15;;;;;;;61.20;23.10;;;;;;;18.79;100.00;96935.22;5093246;28;20409;-73
2023/08/26 00:33:41;;;;;;;57.33;21.17;;;;;;;18.80;100.00;96939.44;5093763;28;20812;-72
2023/08/26 00:36:07;;;;;;;42.40;17.85;;;;;;;18.83;100.00;96930.78;5093295;28;20414;-72
2023/08/26 00:38:34;;;;;;;42.22;17.05;;;;;;;18.84;100.00;96921.63;5093553;28;20405;-73
2023/08/26 00:41:01;;;;;;;41.83;17.43;;;;;;;18.80;100.00;96918.00;5093233;28;20808;-73
2023/08/26 00:43:28;;;;;;;35.50;15.38;;;;;;;18.80;100.00;96923.34;5073093;28;20400;-73
2023/08/26 00:45:54;;;;;;;36.80;16.20;;;;;;;18.79;100.00;96916.44;5073061;28;20402;-73
2023/08/26 00:48:21;;;;;;;46.42;18.20;;;;;;;18.77;100.00;96925.91;5073058;28;20875;-73
2023/08/26 00:50:52;;;;;;;47.28;18.73;;;;;;;18.72;100.00;96904.59;5072907;28;20544;-73
2023/08/26 00:53:20;;;;;;;39.15;16.30;;;;;;;18.72;100.00;96926.06;5072874;28;20407;-73
2023/08/26 00:55:47;;;;;;;44.85;17.45;;;;;;;18.70;100.00;96937.09;5071534;28;20462;-73
2023/08/26 00:58:15;;;;;;;51.28;20.10;;;;;;;18.68;100.00;96941.97;5072858;28;20406;-73
2023/08/26 01:00:42;;;;;;;40.15;16.67;;;;;;;18.67;100.00;96959.16;5072632;28;20888;-73
2023/08/26 01:03:08;;;;;;;38.13;16.23;;;;;;;18.67;100.00;96953.00;5072746;28;20499;-72
2023/08/26 01:05:35;;;;;;;38.25;16.15;;;;;;;18.66;100.00;96960.25;5072647;28;20404;-73
2023/08/26 01:08:04;;;;;;;43.42;17.85;;;;;;;18.65;100.00;96953.31;5072603;28;20404;-73
2023/08/26 01:10:43;;;;;;;41.00;17.67;;;;;;;18.61;100.00;96967.66;5072550;28;20448;-72
2023/08/26 01:13:14;;;;;;;44.20;18.00;;;;;;;18.57;100.00;96950.63;5072506;28;20396;-73
2023/08/26 01:15:48;;;;;;;68.67;19.57;;;;;;;18.51;100.00;96945.38;5072541;28;20408;-72
2023/08/26 01:18:15;;;;;;;41.10;16.95;;;;;;;18.47;100.00;96965.09;5072390;28;20479;-73
2023/08/26 01:20:42;;;;;;;38.75;15.23;;;;;;;18.47;100.00;96997.25;5072370;28;20431;-73
2023/08/26 01:23:16;;;;;;;50.55;18.13;;;;;;;18.45;100.00;97015.53;5072325;28;20449;-73
2023/08/26 01:25:44;;;;;;;115.43;22.75;;;;;;;18.43;100.00;97012.34;5072433;28;20399;-73
2023/08/26 01:28:10;;;;;;;57.83;17.52;;;;;;;18.35;100.00;96989.00;5054428;28;20395;-73
2023/08/26 01:30:37;;;;;;;34.95;14.50;;;;;;;18.28;100.00;97018.13;5072203;28;20757;-73
2023/08/26 01:33:09;;;;;;;29.73;12.20;;;;;;;18.26;100.00;97023.03;5072069;28;20411;-73
2023/08/26 01:35:41;;;;;;;26.57;10.97;;;;;;;18.26;100.00;97012.31;5072216;28;20454;-73
2023/08/26 01:38:08;;;;;;;21.77;9.35;;;;;;;18.25;100.00;96994.66;5072238;28;20816;-73
2023/08/26 01:40:36;;;;;;;24.63;10.32;;;;;;;18.20;100.00;96995.56;5072035;28;20400;-74
2023/08/26 01:43:06;;;;;;;37.22;13.75;;;;;;;18.16;100.00;96995.41;5072172;28;20797;-74
2023/08/26 01:45:32;;;;;;;28.77;11.48;;;;;;;18.15;100.00;96996.50;5092118;28;20404;-73
2023/08/26 01:47:58;;;;;;;22.60;9.60;;;;;;;18.16;100.00;96965.94;5092195;28;20740;-74
2023/08/26 01:50:24;;;;;;;22.80;9.50;;;;;;;18.18;100.00;96968.31;5073756;28;20496;-73
2023/08/26 01:52:51;;;;;;;37.85;13.25;;;;;;;18.14;100.00;96961.97;5092038;28;20412;-74
2023/08/26 01:55:17;;;;;;;41.80;14.25;;;;;;;18.14;100.00;96976.16;5081176;28;20774;-74
2023/08/26 01:57:43;;;;;;;32.23;12.30;;;;;;;18.14;100.00;96981.53;5071812;28;20435;-74
2023/08/26 02:00:12;;;;;;;25.27;10.63;;;;;;;18.16;100.00;96987.38;5071062;28;20411;-73
2023/08/26 02:02:38;;;;;;;28.25;11.65;;;;;;;18.17;100.00;96993.50;5071479;28;20403;-73
2023/08/26 02:05:05;;;;;;;47.20;14.85;;;;;;;18.13;100.00;96987.97;5071435;28;20396;-74
2023/08/26 02:07:31;;;;;;;44.72;16.08;;;;;;;18.09;100.00;96995.06;5071314;28;20762;-74
2023/08/26 02:09:57;;;;;;;37.30;14.33;;;;;;;18.08;100.00;96987.31;5087890;28;20460;-74
2023/08/26 02:12:24;;;;;;;35.13;13.27;;;;;;;18.09;100.00;96988.91;5091282;28;20412;-74
2023/08/26 02:14:50;;;;;;;27.90;11.48;;;;;;;18.10;100.00;96990.50;5091486;28;20976;-74
2023/08/26 02:17:17;;;;;;;37.63;14.27;;;;;;;18.10;100.00;96987.81;5072688;28;20486;-74
2023/08/26 02:19:43;;;;;;;32.83;12.15;;;;;;;18.11;100.00;96997.44;5077276;28;20902;-74
2023/08/26 02:22:10;;;;;;;26.65;11.18;;;;;;;18.12;100.00;96994.44;5091249;28;20399;-74
2023/08/26 02:24:36;;;;;;;28.88;11.77;;;;;;;18.11;100.00;96992.88;5091556;28;20756;-74
2023/08/26 02:27:02;;;;;;;36.25;13.50;;;;;;;18.09;100.00;96992.38;5091418;28;20409;-74
2023/08/26 02:29:30;;;;;;;31.23;11.90;;;;;;;18.11;100.00;96997.44;5091444;28;20398;-74
2023/08/26 02:31:57;;;;;;;31.45;12.25;;;;;;;18.11;100.00;97000.91;5091093;28;20398;-73
2023/08/26 02:34:25;;;;;;;30.70;11.57;;;;;;;18.12;100.00;97005.13;5091202;28;20402;-73
2023/08/26 02:36:52;;;;;;;34.97;12.65;;;;;;;18.13;100.00;97004.03;5091297;28;20445;-73
2023/08/26 02:39:18;;;;;;;27.00;11.55;;;;;;;18.14;100.00;97004.84;5091313;28;20943;-74
2023/08/26 02:41:44;;;;;;;27.27;10.75;;;;;;;18.16;100.00;97002.66;5090837;28;20402;-74
2023/08/26 02:44:10;;;;;;;41.90;14.02;;;;;;;18.12;100.00;96999.00;5091042;28;20490;-73
2023/08/26 02:46:36;;;;;;;45.20;15.43;;;;;;;18.06;100.00;96997.56;5091245;28;20748;-73
2023/08/26 02:49:03;;;;;;;34.10;13.43;;;;;;;18.09;100.00;96996.94;5091032;28;20406;-73
2023/08/26 02:51:31;;;;;;;32.38;12.57;;;;;;;18.08;100.00;96995.34;5090656;28;20404;-73
2023/08/26 02:53:57;;;;;;;28.15;11.65;;;;;;;18.08;100.00;96990.00;5091034;28;20459;-73
2023/08/26 02:56:23;;;;;;;30.67;11.38;;;;;;;18.07;100.00;96993.78;5090732;28;20418;-73
2023/08/26 02:58:49;;;;;;;27.00;10.77;;;;;;;18.07;100.00;97001.81;5090950;28;20484;-72
2023/08/26 03:01:19;;;;;;;23.95;10.13;;;;;;;18.07;100.00;97004.50;5090587;28;20891;-72
2023/08/26 03:03:45;;;;;;;24.77;10.35;;;;;;;18.06;100.00;97014.41;5090863;28;20455;-72
2023/08/26 03:06:12;;;;;;;28.92;10.95;;;;;;;18.07;100.00;97002.59;5090654;28;20485;-73
2023/08/26 03:08:39;;;;;;;21.73;10.00;;;;;;;18.06;100.00;97010.94;5090844;28;20883;-72
2023/08/26 03:11:09;;;;;;;23.10;10.15;;;;;;;18.05;100.00;97018.19;5090474;28;20405;-73
2023/08/26 03:13:35;;;;;;;26.45;10.50;;;;;;;18.04;100.00;97018.53;5090747;28;20887;-73
2023/08/26 03:16:07;;;;;;;20.13;8.90;;;;;;;18.03;100.00;97015.03;5090544;28;20493;-72
2023/08/26 03:18:34;;;;;;;19.70;8.60;;;;;;;18.05;100.00;97022.75;5090102;28;20806;-72
2023/08/26 03:21:03;;;;;;;21.58;8.73;;;;;;;18.06;100.00;97019.78;5090314;28;20493;-72
2023/08/26 03:23:29;;;;;;;17.20;8.00;;;;;;;18.06;100.00;97027.81;5090359;28;20397;-73
2023/08/26 03:25:56;;;;;;;23.85;8.93;;;;;;;18.06;100.00;97027.00;5090470;28;20401;-73
2023/08/26 03:28:23;;;;;;;24.27;8.97;;;;;;;18.07;100.00;97025.91;5079054;28;20415;-73
2023/08/26 03:30:49;;;;;;;20.00;7.70;;;;;;;18.07;100.00;97025.91;5070049;28;20395;-73
2023/08/26 03:33:15;;;;;;;19.88;8.50;;;;;;;18.05;100.00;97025.44;5088694;28;20896;-73
2023/08/26 03:35:42;;;;;;;22.48;9.40;;;;;;;18.00;100.00;97020.22;5090354;28;20418;-73
2023/08/26 03:38:08;;;;;;;23.00;9.13;;;;;;;17.97;100.00;97012.78;5090428;28;20868;-73
2023/08/26 03:40:40;;;;;;;24.40;9.88;;;;;;;17.95;100.00;97018.47;5090302;28;20755;-73
2023/08/26 03:43:07;;;;;;;22.67;9.13;;;;;;;17.93;100.00;97004.59;5090113;28;20402;-73
2023/08/26 03:45:33;;;;;;;19.90;8.82;;;;;;;17.90;100.00;97010.53;5090355;28;20477;-73
2023/08/26 03:48:00;;;;;;;25.15;9.80;;;;;;;17.86;100.00;97012.25;5090210;28;20484;-73
2023/08/26 03:50:26;;;;;;;31.35;11.38;;;;;;;17.82;100.00;97010.53;5069889;28;20408;-73
2023/08/26 03:52:52;;;;;;;24.17;10.48;;;;;;;17.79;100.00;97003.88;5085453;28;20406;-73
2023/08/26 03:55:18;;;;;;;26.50;10.80;;;;;;;17.76;100.00;97009.84;5089913;28;20491;-73
2023/08/26 03:57:44;;;;;;;23.67;10.52;;;;;;;17.73;100.00;97013.94;5090185;28;20843;-73
2023/08/26 04:00:14;;;;;;;28.83;11.27;;;;;;;17.70;100.00;97019.88;5090008;28;20394;-73
2023/08/26 04:02:41;;;;;;;26.77;11.10;;;;;;;17.68;100.00;97035.44;5089916;28;20402;-73
2023/08/26 04:05:07;;;;;;;24.30;10.43;;;;;;;17.67;100.00;97043.78;5090008;28;20421;-73
2023/08/26 04:07:33;;;;;;;38.55;13.65;;;;;;;17.63;100.00;97040.16;5090020;28;20512;-73
2023/08/26 04:10:00;;;;;;;34.58;14.57;;;;;;;17.61;100.00;97045.81;5090158;28;20413;-73
2023/08/26 04:12:26;;;;;;;47.90;16.98;;;;;;;17.60;100.00;97054.09;5089770;28;20398;-73
2023/08/26 04:14:52;;;;;;;51.00;17.92;;;;;;;17.56;100.00;97047.78;5074423;28;20416;-73
2023/08/26 04:17:19;;;;;;;43.80;17.70;;;;;;;17.57;100.00;97063.53;5069692;28;20769;-73
2023/08/26 04:19:46;;;;;;;43.83;16.27;;;;;;;17.57;100.00;97062.75;5069731;28;20419;-73
2023/08/26 04:22:12;;;;;;;41.20;17.25;;;;;;;17.56;100.00;97063.84;5051423;28;20443;-73
2023/08/26 04:24:38;;;;;;;44.60;18.63;;;;;;;17.56;100.00;97069.97;5069777;28;20495;-73
2023/08/26 04:27:04;;;;;;;47.45;17.67;;;;;;;17.58;100.00;97053.63;5069609;28;20407;-73
2023/08/26 04:29:31;;;;;;;48.55;18.00;;;;;;;17.56;100.00;97048.56;5071341;28;20407;-73
2023/08/26 04:31:57;;;;;;;42.78;16.63;;;;;;;17.56;100.00;97064.63;5073187;28;20804;-73
2023/08/26 04:34:25;;;;;;;57.40;19.80;;;;;;;17.54;100.00;97060.66;5073171;28;20407;-73
2023/08/26 04:36:52;;;;;;;42.42;16.55;;;;;;;17.55;100.00;97070.28;5073292;28;20461;-73
2023/08/26 04:39:20;;;;;;;36.50;15.63;;;;;;;17.54;100.00;97080.19;5073247;28;20407;-73
2023/08/26 04:41:46;;;;;;;34.13;14.27;;;;;;;17.55;100.00;97071.06;5072970;28;20456;-73
2023/08/26 04:44:12;;;;;;;30.92;13.25;;;;;;;17.57;100.00;97082.28;5073094;28;20396;-73
2023/08/26 04:46:38;;;;;;;33.20;13.10;;;;;;;17.56;100.00;97078.00;5073081;28;20502;-73
2023/08/26 04:49:04;;;;;;;28.03;12.13;;;;;;;17.54;100.00;97082.88;5073163;28;20974;-74
2023/08/26 04:51:32;;;;;;;31.38;12.85;;;;;;;17.53;100.00;97097.34;5072955;28;20888;-74
2023/08/26 04:53:58;;;;;;;30.47;11.97;;;;;;;17.53;100.00;97094.66;5073028;28;20395;-73
2023/08/26 04:56:24;;;;;;;23.73;11.20;;;;;;;17.52;100.00;97095.75;5072752;28;20472;-74
2023/08/26 04:58:51;;;;;;;27.73;11.90;;;;;;;17.50;100.00;97106.00;5073061;28;20749;-73
2023/08/26 05:01:17;;;;;;;28.38;12.15;;;;;;;17.50;100.00;97107.88;5072542;28;20495;-73
2023/08/26 05:03:43;;;;;;;26.77;11.73;;;;;;;17.49;100.00;97108.97;5072928;28;20475;-74
2023/08/26 05:06:09;;;;;;;36.45;14.60;;;;;;;17.49;100.00;97114.31;5072689;28;20493;-73
2023/08/26 05:08:37;;;;;;;37.00;14.55;;;;;;;17.49;100.00;97111.63;5072790;28;20482;-73
2023/08/26 05:11:05;;;;;;;32.47;13.13;;;;;;;17.49;100.00;97115.13;5072431;28;20418;-73
2023/08/26 05:13:31;;;;;;;27.03;11.93;;;;;;;17.49;100.00;97119.66;5073010;28;20439;-73
2023/08/26 05:15:57;;;;;;;30.27;12.85;;;;;;;17.50;100.00;97118.59;5072813;28;20451;-73
2023/08/26 05:18:23;;;;;;;28.73;12.23;;;;;;;17.50;100.00;97114.03;5072953;28;20400;-73
2023/08/26 05:20:49;;;;;;;28.60;12.53;;;;;;;17.51;100.00;97110.25;5072830;28;20407;-73
2023/08/26 05:23:16;;;;;;;31.38;12.23;;;;;;;17.52;100.00;97111.81;5072675;28;20750;-74
2023/08/26 05:25:45;;;;;;;29.38;12.52;;;;;;;17.55;100.00;97115.78;5072599;28;20465;-73
2023/08/26 05:28:13;;;;;;;33.80;12.95;;;;;;;17.57;100.00;97114.41;5072767;28;20395;-73
2023/08/26 05:30:39;;;;;;;31.35;12.57;;;;;;;17.58;100.00;97113.31;5072554;28;20400;-73
2023/08/26 05:33:05;;;;;;;34.58;14.00;;;;;;;17.57;100.00;97113.59;5072378;28;20418;-73
2023/08/26 05:35:32;;;;;;;34.75;13.35;;;;;;;17.54;100.00;97119.53;5072435;28;20835;-73
2023/08/26 05:37:58;;;;;;;30.60;12.73;;;;;;;17.51;100.00;97099.56;5072666;28;20406;-73
2023/08/26 05:40:28;;;;;;;29.93;12.07;;;;;;;17.51;100.00;97102.22;5071978;28;20400;-74
2023/08/26 05:42:57;;;;;;;29.90;11.93;;;;;;;17.51;100.00;97104.09;5079455;28;20410;-75
2023/08/26 05:45:24;;;;;;;25.13;10.57;;;;;;;17.51;100.00;97102.22;5092246;28;20807;-75
2023/08/26 05:47:50;;;;;;;26.75;11.30;;;;;;;17.52;100.00;97106.47;5092343;28;20401;-75
2023/08/26 05:50:16;;;;;;;25.33;10.55;;;;;;;17.55;100.00;97111.22;5092044;28;20856;-75
2023/08/26 05:52:42;;;;;;;34.83;13.30;;;;;;;17.57;100.00;97117.06;5081324;28;20487;-75
2023/08/26 05:55:12;;;;;;;25.00;11.20;;;;;;;17.63;100.00;97109.75;5075055;28;20910;-73
2023/08/26 05:57:39;;;;;;;25.08;10.15;;;;;;;17.70;100.00;97110.91;5092167;28;20410;-73
2023/08/26 06:00:08;;;;;;;21.65;9.95;;;;;;;17.80;100.00;97112.56;5091550;28;20451;-73
2023/08/26 06:02:34;;;;;;;24.77;10.47;;;;;;;17.91;100.00;97113.09;5090501;28;20407;-73
2023/08/26 06:05:00;;;;;;;39.63;15.10;;;;;;;18.00;100.00;97117.41;5091990;28;20421;-73
2023/08/26 06:07:26;;;;;;;40.70;16.05;;;;;;;18.05;100.00;97109.25;5080397;28;21195;-74
2023/08/26 06:09:53;;;;;;;39.90;15.53;;;;;;;18.14;100.00;97107.44;5084843;28;20414;-73
2023/08/26 06:12:19;;;;;;;35.50;14.18;;;;;;;18.23;100.00;97114.72;5078678;28;20394;-75
2023/08/26 06:14:45;;;;;;;48.58;16.85;;;;;;;18.24;100.00;97111.75;5082044;28;20394;-75
2023/08/26 06:17:13;;;;;;;35.75;14.55;;;;;;;18.28;100.00;97104.66;5088580;28;20412;-75
2023/08/26 06:19:39;;;;;;;32.13;13.30;;;;;;;18.27;100.00;97100.41;5084910;28;20430;-75
2023/08/26 06:22:05;;;;;;;55.83;17.60;;;;;;;18.28;100.00;97115.38;5084608;28;20905;-74
2023/08/26 06:24:31;;;;;;;31.08;12.60;;;;;;;18.29;100.00;97124.22;5086312;28;20419;-73
2023/08/26 06:26:57;;;;;;;27.98;11.98;;;;;;;18.35;100.00;97126.44;5087657;28;20410;-72
2023/08/26 06:29:25;;;;;;;22.08;10.45;;;;;;;18.44;100.00;97129.19;5088442;28;20515;-73
2023/08/26 06:31:51;;;;;;;18.97;9.40;;;;;;;18.54;100.00;97127.03;5083091;28;20404;-73
2023/08/26 06:34:19;;;;;;;17.92;8.85;;;;;;;18.63;100.00;97124.44;5079060;28;20498;-73
2023/08/26 06:36:46;;;;;;;27.88;10.68;;;;;;;18.76;100.00;97125.44;5071287;28;20437;-74
2023/08/26 06:39:12;;;;;;;24.40;10.98;;;;;;;18.85;100.00;97120.88;5071019;28;20396;-73
2023/08/26 06:41:38;;;;;;;19.83;9.77;;;;;;;18.95;100.00;97128.63;5084338;28;20416;-73
2023/08/26 06:44:05;;;;;;;19.52;9.75;;;;;;;19.03;100.00;97133.25;5089600;28;20394;-73
2023/08/26 06:46:31;;;;;;;39.05;13.43;;;;;;;19.00;100.00;97131.19;5090966;28;20405;-73
2023/08/26 06:48:58;;;;;;;27.35;11.70;;;;;;;18.98;100.00;97122.66;5091297;28;20402;-73
2023/08/26 06:51:26;;;;;;;35.50;13.55;;;;;;;18.93;100.00;97139.69;5091022;28;20398;-73
2023/08/26 06:53:52;;;;;;;32.08;13.30;;;;;;;18.90;100.00;97145.66;5090550;28;20402;-72
2023/08/26 06:56:18;;;;;;;26.45;12.45;;;;;;;18.90;100.00;97129.59;5091072;28;20416;-74
2023/08/26 06:58:45;;;;;;;39.80;14.77;;;;;;;18.80;100.00;97119.13;5091087;28;20489;-77
2023/08/26 07:01:11;;;;;;;23.48;11.38;;;;;;;18.78;100.00;97113.28;5090316;28;20394;-73
2023/08/26 07:03:37;;;;;;;22.00;10.07;;;;;;;18.79;100.00;97122.94;5081365;28;20406;-74
2023/08/26 07:06:04;;;;;;;18.13;9.27;;;;;;;18.84;100.00;97124.66;5079611;28;20457;-73
2023/08/26 07:08:31;;;;;;;22.25;9.43;;;;;;;18.87;100.00;97124.03;5083525;28;20400;-72
2023/08/26 07:10:57;;;;;;;18.35;8.68;;;;;;;18.89;100.00;97119.16;5087243;28;20906;-72
2023/08/26 07:13:23;;;;;;;15.82;7.78;;;;;;;18.91;100.00;97131.16;5084747;28;20413;-72
2023/08/26 07:15:50;;;;;;;12.05;6.57;;;;;;;18.95;100.00;97134.00;5077449;28;20413;-73
2023/08/26 07:18:16;;;;;;;13.52;6.72;;;;;;;18.96;100.00;97132.91;5082223;28;20520;-73
2023/08/26 07:20:44;;;;;;;14.55;6.80;;;;;;;18.97;100.00;97129.13;5080262;28;20429;-72
2023/08/26 07:23:10;;;;;;;12.68;6.88;;;;;;;19.02;100.00;97128.97;5074888;28;20427;-72
2023/08/26 07:25:38;;;;;;;11.93;6.40;;;;;;;19.13;100.00;97124.13;5086261;28;20412;-73
2023/08/26 07:28:06;;;;;;;7.95;4.93;;;;;;;19.25;100.00;97126.97;5085039;28;20394;-72
2023/08/26 07:30:33;;;;;;;6.37;3.80;;;;;;;19.40;100.00;97123.06;5087373;28;20455;-73
2023/08/26 07:32:59;;;;;;;7.65;4.43;;;;;;;19.50;100.00;97131.63;5084741;28;20872;-72
2023/08/26 07:35:25;;;;;;;6.10;4.15;;;;;;;19.61;100.00;97137.50;5086934;28;20406;-73
2023/08/26 07:37:52;;;;;;;6.40;3.57;;;;;;;19.73;100.00;97136.88;5082771;28;20408;-72
2023/08/26 07:40:19;;;;;;;6.55;3.90;;;;;;;19.73;100.00;97124.22;5077178;28;20707;-73
2023/08/26 07:42:46;;;;;;;7.00;4.70;;;;;;;19.74;100.00;97125.03;5075970;28;20404;-72
2023/08/26 07:45:13;;;;;;;7.78;4.35;;;;;;;19.69;100.00;97107.97;5078134;28;20440;-72
2023/08/26 07:47:43;;;;;;;8.10;4.70;;;;;;;19.64;100.00;97116.16;5079799;28;20454;-72
2023/08/26 07:50:10;;;;;;;6.88;4.72;;;;;;;19.60;100.00;97109.06;5086749;28;20390;-72
2023/08/26 07:52:37;;;;;;;4.78;4.10;;;;;;;19.68;100.00;97100.22;5087763;28;20872;-72
2023/08/26 07:55:04;;;;;;;5.18;3.60;;;;;;;19.77;100.00;97092.16;5088156;28;20402;-72
2023/08/26 07:57:30;;;;;;;5.20;3.60;;;;;;;19.95;100.00;97089.13;5084872;28;20416;-72
2023/08/26 07:59:58;;;;;;;3.47;2.90;;;;;;;20.07;100.00;97089.25;5081744;28;20578;-72
2023/08/26 08:02:24;;;;;;;3.13;2.70;;;;;;;20.13;100.00;97083.72;5086567;28;20401;-72
2023/08/26 08:04:50;;;;;;;9.88;4.75;;;;;;;20.06;100.00;97082.34;5088740;28;20390;-71
2023/08/26 08:07:16;;;;;;;10.47;4.90;;;;;;;19.97;100.00;97083.44;5093411;28;20752;-72
2023/08/26 08:09:43;;;;;;;4.63;3.97;;;;;;;19.89;100.00;97105.72;5091531;28;20402;-72
2023/08/26 08:12:09;;;;;;;5.38;3.42;;;;;;;19.85;100.00;97113.63;5089355;28;20435;-72
2023/08/26 08:14:35;;;;;;;6.20;3.47;;;;;;;19.80;100.00;97118.38;5090462;28;20401;-72
2023/08/26 08:17:03;;;;;;;4.70;3.30;;;;;;;19.75;100.00;97116.66;5090516;28;20503;-73
2023/08/26 08:19:29;;;;;;;4.78;3.17;;;;;;;19.73;100.00;97110.00;5086774;28;20404;-73
2023/08/26 08:21:55;;;;;;;4.40;3.20;;;;;;;19.69;100.00;97123.28;5077581;28;20410;-73
2023/08/26 08:24:21;;;;;;;7.03;3.22;;;;;;;19.67;100.00;97115.53;5085785;28;20764;-73
2023/08/26 08:26:48;;;;;;;3.33;2.95;;;;;;;19.70;100.00;97122.16;5081932;28;20411;-72
2023/08/26 08:29:14;;;;;;;4.57;2.70;;;;;;;19.73;100.00;97121.53;5088630;28;20432;-73
2023/08/26 08:31:40;;;;;;;4.70;3.60;;;;;;;19.73;100.00;97123.44;5093670;28;20764;-73
2023/08/26 08:34:07;;;;;;;5.50;3.80;;;;;;;19.75;100.00;97113.16;5093773;28;20907;-72
2023/08/26 08:36:33;;;;;;;9.02;4.60;;;;;;;19.76;100.00;97107.50;5093683;28;20421;-73
2023/08/26 08:39:00;;;;;;;6.47;4.03;;;;;;;19.80;100.00;97104.94;5093678;28;20871;-73
2023/08/26 08:41:28;;;;;;;5.28;4.07;;;;;;;19.87;100.00;97102.56;5093220;28;20398;-73
2023/08/26 08:43:59;;;;;;;3.72;3.42;;;;;;;20.16;100.00;97105.38;5093512;28;20421;-72
2023/08/26 08:46:25;;;;;;;3.47;3.17;;;;;;;20.52;100.00;97106.91;5093517;28;20400;-73
2023/08/26 08:48:52;;;;;;;4.65;2.83;;;;;;;20.79;100.00;97106.47;5093496;28;20477;-73
2023/08/26 08:51:20;;;;;;;2.58;2.35;;;;;;;20.86;100.00;97101.38;5093118;28;20404;-73
2023/08/26 08:53:47;;;;;;;2.38;2.17;;;;;;;20.88;100.00;97109.91;5093440;28;20499;-72
2023/08/26 08:56:19;;;;;;;2.90;2.10;;;;;;;20.94;100.00;97113.22;5092969;28;20413;-73
2023/08/26 08:58:48;;;;;;;2.20;2.00;;;;;;;21.00;100.00;97109.22;5093279;28;20397;-72
2023/08/26 09:01:15;;;;;;;2.00;1.90;;;;;;;21.06;100.00;97105.22;5092779;28;20433;-74
2023/08/26 09:03:41;;;;;;;2.95;2.60;;;;;;;21.01;100.00;97111.59;5093188;28;20424;-73
2023/08/26 09:06:08;;;;;;;3.50;2.72;;;;;;;20.83;100.00;97110.09;5093314;28;20422;-73
2023/08/26 09:08:36;;;;;;;3.67;2.72;;;;;;;20.68;100.00;97106.03;5093345;28;20540;-73
2023/08/26 09:11:03;;;;;;;3.15;2.50;;;;;;;20.62;100.00;97109.22;5093074;28;20930;-73
2023/08/26 09:13:29;;;;;;;2.47;2.25;;;;;;;20.63;100.00;97108.91;5093320;28;20401;-73
2023/08/26 09:15:56;;;;;;;3.28;2.38;;;;;;;20.64;100.00;97110.50;5091896;28;20409;-73
2023/08/26 09:18:23;;;;;;;2.70;2.47;;;;;;;20.66;100.00;97110.97;5092819;28;20748;-74
2023/08/26 09:20:49;;;;;;;6.88;3.30;;;;;;;20.62;100.00;97098.47;5092609;28;20470;-73
2023/08/26 09:23:15;;;;;;;3.17;2.70;;;;;;;20.62;100.00;97095.78;5092503;28;20401;-72
2023/08/26 09:25:53;;;;;;;3.70;2.83;;;;;;;20.63;100.00;97100.06;5092875;28;20447;-74
2023/08/26 09:28:20;;;;;;;3.78;2.75;;;;;;;20.63;100.00;97098.16;5092972;28;20402;-72
2023/08/26 09:31:02;;;;;;;2.92;2.63;;;;;;;20.57;100.00;97101.34;5092953;28;20459;-73
2023/08/26 09:33:28;;;;;;;4.35;2.75;;;;;;;20.56;100.00;97091.69;5092959;28;20477;-73
2023/08/26 09:35:55;;;;;;;5.32;3.20;;;;;;;20.57;100.00;97096.75;5092817;28;20414;-73
2023/08/26 09:38:21;;;;;;;3.55;2.90;;;;;;;20.53;100.00;97103.88;5092828;28;20394;-73
2023/08/26 09:40:47;;;;;;;3.92;3.30;;;;;;;20.46;100.00;97099.00;5092808;28;20398;-74
2023/08/26 09:43:15;;;;;;;8.35;3.90;;;;;;;20.34;100.00;97098.09;5086678;28;20887;-73
2023/08/26 09:45:42;;;;;;;10.50;4.85;;;;;;;20.22;100.00;97088.00;5087986;28;20433;-73
2023/08/26 09:48:08;;;;;;;8.73;4.90;;;;;;;20.09;100.00;97092.41;5088350;28;20509;-73
2023/08/26 09:50:34;;;;;;;12.25;5.97;;;;;;;19.98;100.00;97095.78;5084613;28;20399;-73
2023/08/26 09:53:00;;;;;;;12.05;6.68;;;;;;;19.87;100.00;97075.72;5081125;28;20406;-73
2023/08/26 09:55:28;;;;;;;8.57;5.85;;;;;;;19.78;100.00;97086.47;5080182;28;20905;-74
2023/08/26 09:57:54;;;;;;;8.80;5.60;;;;;;;19.70;100.00;97084.56;5081743;28;20400;-73
2023/08/26 10:00:22;;;;;;;8.35;5.70;;;;;;;19.65;100.00;97071.31;5090410;28;20410;-73
2023/08/26 10:02:50;;;;;;;14.60;7.35;;;;;;;19.62;100.00;97067.34;5083453;28;20461;-73
2023/08/26 10:05:18;;;;;;;14.60;7.10;;;;;;;19.61;100.00;97070.38;5080892;28;20391;-73
2023/08/26 10:07:46;;;;;;;13.70;6.65;;;;;;;19.65;100.00;97066.72;5085200;28;20426;-73
2023/08/26 10:10:18;;;;;;;24.10;8.40;;;;;;;19.69;100.00;97069.59;5083435;28;20877;-73
2023/08/26 10:12:47;;;;;;;12.85;7.00;;;;;;;19.73;100.00;97080.47;5085313;28;20913;-73
2023/08/26 10:15:17;;;;;;;17.52;9.40;;;;;;;19.68;100.00;97084.13;5086142;28;20421;-73
2023/08/26 10:17:48;;;;;;;16.38;8.40;;;;;;;19.66;100.00;97089.78;5080703;28;20439;-73
2023/08/26 10:20:15;;;;;;;13.07;6.70;;;;;;;19.68;100.00;97084.91;5081537;28;20915;-73
2023/08/26 10:22:41;;;;;;;14.37;6.67;;;;;;;19.70;100.00;97093.41;5086854;28;20390;-73
2023/08/26 10:25:10;;;;;;;10.07;5.68;;;;;;;19.73;100.00;97088.53;5085079;28;20929;-74
2023/08/26 10:27:37;;;;;;;9.70;5.60;;;;;;;19.74;100.00;97074.78;5084243;28;20390;-74
2023/08/26 10:30:05;;;;;;;10.35;5.13;;;;;;;19.81;100.00;97064.34;5081637;28;20428;-74
2023/08/26 10:32:38;;;;;;;8.10;4.50;;;;;;;19.97;100.00;97064.63;5083501;28;20867;-72
2023/08/26 10:35:12;;;;;;;6.70;4.93;;;;;;;20.11;100.00;97070.59;5084457;28;20402;-72
2023/08/26 10:37:39;;;;;;;7.57;4.20;;;;;;;20.14;100.00;97072.66;5086856;28;20409;-72
2023/08/26 10:40:08;;;;;;;6.63;3.90;;;;;;;20.09;100.00;97079.00;5083886;28;20404;-73
2023/08/26 10:42:36;;;;;;;6.87;4.40;;;;;;;20.02;100.00;97069.84;5082805;28;20931;-73
2023/08/26 10:45:02;;;;;;;5.38;3.97;;;;;;;19.99;100.00;97073.97;5082165;28;20395;-72
2023/08/26 10:47:35;;;;;;;7.75;4.90;;;;;;;19.92;100.00;97081.69;5087007;28;20432;-73
2023/08/26 10:50:16;;;;;;;7.00;4.57;;;;;;;19.85;100.00;97094.81;5084511;28;20426;-72
2023/08/26 10:52:42;;;;;;;6.40;4.35;;;;;;;19.82;100.00;97108.13;5082290;28;20427;-72
2023/08/26 10:55:17;;;;;;;8.48;5.00;;;;;;;19.76;100.00;97098.66;5084393;28;20410;-73
2023/08/26 10:58:09;;;;;;;9.18;5.03;;;;;;;19.74;100.00;97090.91;5086806;28;20459;-73
2023/08/26 11:00:37;;;;;;;7.68;4.93;;;;;;;19.79;100.00;97089.94;5080988;28;20390;-73
2023/08/26 11:03:05;;;;;;;6.75;4.45;;;;;;;19.89;100.00;97076.97;5079169;28;20395;-74
2023/08/26 11:05:32;;;;;;;5.88;3.95;;;;;;;20.05;100.00;97067.31;5065967;28;20897;-73
2023/08/26 11:08:02;;;;;;;6.32;4.07;;;;;;;20.17;100.00;97066.63;5080781;28;20449;-73
2023/08/26 11:10:30;;;;;;;4.57;3.97;;;;;;;20.21;100.00;97067.59;5081711;28;20403;-74
2023/08/26 11:12:56;;;;;;;6.88;4.20;;;;;;;20.22;100.00;97066.50;5086380;28;20432;-74
2023/08/26 11:15:23;;;;;;;4.93;3.63;;;;;;;20.19;100.00;97060.94;5087079;28;21279;-73